Time;durP1;ratioP1;P1;durP2;ratioP2;P2;SDS_P1;SDS_P2;PMS_P1;PMS_P2;Temp;Humidity;BMP_temperature;BMP_pressure;BME280_temperature;BME280_humidity;BME280_pressure;Samples;Min_cycle;Max_cycle;Signal;HPM_P1;HPM_P2
2021/11/23 00:02:10;;;;;;;;;;;21.00;62.30;;;;;;4993337;28;1898;-67
2021/11/23 00:04:35;;;;;;;;;;;21.00;62.30;;;;;;4994122;28;1285;-67
2021/11/23 00:07:01;;;;;;;;;;;21.00;62.30;;;;;;4994201;28;1398;-67
2021/11/23 00:09:26;;;;;;;;;;;21.00;62.40;;;;;;4994644;28;1263;-68
2021/11/23 00:11:52;;;;;;;;;;;21.00;62.40;;;;;;4993583;28;1352;-67
2021/11/23 00:14:17;;;;;;;;;;;21.00;62.40;;;;;;4993918;28;1304;-67
2021/11/23 00:16:43;;;;;;;;;;;21.00;62.40;;;;;;4993991;28;1269;-67
2021/11/23 00:19:08;;;;;;;;;;;21.00;62.40;;;;;;4994275;28;1284;-67
2021/11/23 00:21:34;;;;;;;;;;;21.00;62.40;;;;;;4999544;28;1961;-67
2021/11/23 00:23:59;;;;;;;;;;;21.00;62.50;;;;;;4974381;28;1306;-67
2021/11/23 00:26:25;;;;;;;;;;;20.90;63.20;;;;;;4974752;28;1371;-68
2021/11/23 00:28:51;;;;;;;;;;;20.90;62.50;;;;;;4974650;28;1276;-67
2021/11/23 00:31:16;;;;;;;;;;;20.90;62.50;;;;;;4974004;28;1266;-67
2021/11/23 00:33:42;;;;;;;;;;;20.90;62.50;;;;;;4974386;28;1272;-68
2021/11/23 00:36:08;;;;;;;;;;;20.90;62.50;;;;;;4986557;28;1300;-68
2021/11/23 00:38:34;;;;;;;;;;;21.00;62.60;;;;;;4974604;28;1358;-67
2021/11/23 00:40:59;;;;;;;;;;;20.90;62.50;;;;;;4976354;28;1374;-68
2021/11/23 00:43:25;;;;;;;;;;;20.90;62.50;;;;;;4993793;28;1964;-67
2021/11/23 00:45:50;;;;;;;;;;;20.90;62.60;;;;;;4992714;28;1273;-67
2021/11/23 00:48:16;;;;;;;;;;;20.90;62.60;;;;;;4993699;28;1255;-67
2021/11/23 00:50:41;;;;;;;;;;;20.90;62.50;;;;;;4991880;28;1300;-67
2021/11/23 00:53:07;;;;;;;;;;;20.90;62.60;;;;;;4992529;28;1060;-68
2021/11/23 00:55:32;;;;;;;;;;;20.90;63.40;;;;;;4992726;28;1689;-68
2021/11/23 00:57:58;;;;;;;;;;;20.90;62.70;;;;;;4992084;28;1276;-68
2021/11/23 01:00:24;;;;;;;;;;;20.90;62.60;;;;;;4993168;28;1334;-67
2021/11/23 01:02:49;;;;;;;;;;;20.90;62.70;;;;;;4991179;28;1902;-68
2021/11/23 01:05:15;;;;;;;;;;;20.90;62.70;;;;;;4993201;28;1327;-68
2021/11/23 01:07:40;;;;;;;;;;;20.90;62.70;;;;;;4991876;28;1276;-67
2021/11/23 01:10:06;;;;;;;;;;;20.90;62.70;;;;;;4992610;28;1295;-68
2021/11/23 01:12:32;;;;;;;;;;;20.80;62.70;;;;;;4992946;28;1307;-68
2021/11/23 01:14:57;;;;;;;;;;;20.90;62.70;;;;;;4992971;28;1306;-68
2021/11/23 01:17:23;;;;;;;;;;;20.80;62.80;;;;;;4993034;28;1279;-68
2021/11/23 01:19:48;;;;;;;;;;;20.80;62.70;;;;;;4993414;28;1200;-68
2021/11/23 01:22:14;;;;;;;;;;;20.80;62.70;;;;;;4995638;28;1957;-68
2021/11/23 01:24:39;;;;;;;;;;;20.80;62.80;;;;;;4973525;28;1207;-67
2021/11/23 01:27:05;;;;;;;;;;;20.90;62.80;;;;;;4975319;28;1187;-67
2021/11/23 01:29:31;;;;;;;;;;;20.80;62.80;;;;;;4974263;28;1348;-67
2021/11/23 01:31:56;;;;;;;;;;;20.80;62.80;;;;;;4974053;28;1425;-67
2021/11/23 01:34:22;;;;;;;;;;;20.80;62.80;;;;;;4973865;28;1285;-68
2021/11/23 01:36:47;;;;;;;;;;;20.80;62.80;;;;;;4973288;28;1269;-68
2021/11/23 01:39:13;;;;;;;;;;;20.80;62.80;;;;;;4973568;28;1254;-68
2021/11/23 01:41:38;;;;;;;;;;;20.80;62.80;;;;;;4979191;28;1910;-67
2021/11/23 01:44:04;;;;;;;;;;;20.80;62.90;;;;;;4992593;28;1306;-68
2021/11/23 01:46:29;;;;;;;;;;;20.80;62.90;;;;;;4990976;28;1413;-68
2021/11/23 01:48:55;;;;;;;;;;;20.80;62.90;;;;;;4992938;28;1381;-68
2021/11/23 01:51:21;;;;;;;;;;;20.80;62.90;;;;;;4984771;28;1176;-67
2021/11/23 01:53:46;;;;;;;;;;;20.80;62.90;;;;;;4973345;28;1257;-68
2021/11/23 01:56:12;;;;;;;;;;;20.80;62.90;;;;;;4979262;28;1268;-68
2021/11/23 01:58:38;;;;;;;;;;;20.80;63.00;;;;;;4990321;28;1332;-68
2021/11/23 02:01:06;;;;;;;;;;;20.80;62.90;;;;;;4970960;28;1451;-68
2021/11/23 02:03:32;;;;;;;;;;;20.80;62.90;;;;;;4973317;28;1902;-68
2021/11/23 02:05:58;;;;;;;;;;;20.80;63.00;;;;;;4972882;28;1311;-68
2021/11/23 02:08:23;;;;;;;;;;;20.80;63.00;;;;;;4976224;28;1246;-68
2021/11/23 02:10:48;;;;;;;;;;;20.80;62.90;;;;;;4976098;28;1212;-67
2021/11/23 02:13:14;;;;;;;;;;;20.70;63.00;;;;;;4976249;28;1080;-68
2021/11/23 02:15:40;;;;;;;;;;;20.70;63.00;;;;;;4975671;28;1302;-68
2021/11/23 02:18:12;;;;;;;;;;;20.80;63.10;;;;;;4976363;28;1286;-67
2021/11/23 02:20:38;;;;;;;;;;;20.80;63.00;;;;;;4989991;28;1261;-68
2021/11/23 02:23:03;;;;;;;;;;;20.70;63.00;;;;;;4987413;28;1961;-67
2021/11/23 02:25:29;;;;;;;;;;;20.70;63.00;;;;;;4995979;28;1829;-68
2021/11/23 02:27:54;;;;;;;;;;;20.80;63.00;;;;;;4982101;28;1131;-68
2021/11/23 02:30:20;;;;;;;;;;;20.70;62.90;;;;;;4976816;28;1344;-68
2021/11/23 02:32:54;;;;;;;;;;;20.80;63.00;;;;;;4976014;28;1283;-68
2021/11/23 02:35:20;;;;;;;;;;;20.70;62.90;;;;;;4976588;28;1353;-67
2021/11/23 02:37:47;;;;;;;;;;;20.70;63.00;;;;;;4975586;28;1209;-67
2021/11/23 02:40:12;;;;;;;;;;;20.70;63.00;;;;;;4976827;28;1256;-68
2021/11/23 02:42:38;;;;;;;;;;;20.80;63.00;;;;;;4990911;28;1907;-67
2021/11/23 02:45:03;;;;;;;;;;;20.80;62.90;;;;;;4995767;28;1373;-68
2021/11/23 02:47:36;;;;;;;;;;;20.80;62.90;;;;;;4995804;28;1146;-68
2021/11/23 02:50:02;;;;;;;;;;;20.80;62.80;;;;;;4994398;28;1311;-67
2021/11/23 02:52:27;;;;;;;;;;;20.80;62.70;;;;;;4993713;28;1284;-67
2021/11/23 02:54:56;;;;;;;;;;;20.80;62.60;;;;;;4995331;28;2004;-68
2021/11/23 02:57:29;;;;;;;;;;;20.90;62.60;;;;;;4994221;28;1348;-68
2021/11/23 02:59:54;;;;;;;;;;;20.90;62.50;;;;;;4995700;28;1274;-68
2021/11/23 03:02:20;;;;;;;;;;;20.90;62.40;;;;;;4987962;28;1976;-67
2021/11/23 03:04:52;;;;;;;;;;;21.00;62.40;;;;;;4976106;28;1585;-67
2021/11/23 03:07:18;;;;;;;;;;;21.00;62.30;;;;;;4976118;28;1339;-67
2021/11/23 03:09:43;;;;;;;;;;;21.00;62.20;;;;;;4975895;28;1301;-67
2021/11/23 03:12:13;;;;;;;;;;;21.00;62.10;;;;;;4973396;28;1297;-67
2021/11/23 03:14:38;;;;;;;;;;;21.00;62.10;;;;;;4974875;28;1135;-67
2021/11/23 03:17:04;;;;;;;;;;;21.00;62.00;;;;;;4975788;28;1345;-67
2021/11/23 03:19:29;;;;;;;;;;;21.00;61.90;;;;;;4975378;28;1263;-67
2021/11/23 03:21:55;;;;;;;;;;;21.10;62.00;;;;;;5000191;28;1960;-67
2021/11/23 03:24:21;;;;;;;;;;;21.10;61.90;;;;;;4992781;28;1264;-68
2021/11/23 03:26:46;;;;;;;;;;;21.10;61.90;;;;;;4991456;28;1288;-67
2021/11/23 03:29:12;;;;;;;;;;;21.10;61.80;;;;;;4984894;28;1319;-68
2021/11/23 03:31:37;;;;;;;;;;;21.10;61.80;;;;;;4975345;28;1299;-67
2021/11/23 03:34:02;;;;;;;;;;;21.10;61.80;;;;;;4979200;28;1158;-67
2021/11/23 03:36:28;;;;;;;;;;;21.10;61.70;;;;;;4975154;28;1308;-67
2021/11/23 03:38:53;;;;;;;;;;;21.10;61.70;;;;;;4975163;28;1342;-67
2021/11/23 03:41:19;;;;;;;;;;;21.10;61.70;;;;;;4979713;28;1033;-67
2021/11/23 03:43:44;;;;;;;;;;;21.10;61.70;;;;;;4994948;28;1950;-67
2021/11/23 03:46:10;;;;;;;;;;;21.10;61.70;;;;;;4989531;28;1342;-67
2021/11/23 03:48:35;;;;;;;;;;;21.10;61.70;;;;;;4964236;28;1333;-68
2021/11/23 03:51:01;;;;;;;;;;;21.10;61.70;;;;;;4974326;28;1312;-67
2021/11/23 03:53:27;;;;;;;;;;;21.10;61.70;;;;;;4975960;28;1398;-68
2021/11/23 03:55:52;;;;;;;;;;;21.10;61.70;;;;;;4975202;28;1396;-68
2021/11/23 03:58:18;;;;;;;;;;;21.10;61.60;;;;;;4974391;28;1373;-67
2021/11/23 04:00:43;;;;;;;;;;;21.10;61.60;;;;;;4975548;28;1316;-67
2021/11/23 04:03:08;;;;;;;;;;;21.10;61.60;;;;;;4974876;28;1898;-67
2021/11/23 04:05:34;;;;;;;;;;;21.10;61.60;;;;;;4975152;28;1348;-67
2021/11/23 04:07:59;;;;;;;;;;;21.10;61.60;;;;;;4975439;28;1093;-67
2021/11/23 04:10:25;;;;;;;;;;;21.10;61.60;;;;;;4975114;28;1323;-68
2021/11/23 04:12:51;;;;;;;;;;;21.10;61.60;;;;;;4974439;28;1251;-67
2021/11/23 04:15:17;;;;;;;;;;;21.10;61.60;;;;;;4974894;28;1415;-67
2021/11/23 04:17:42;;;;;;;;;;;21.10;61.60;;;;;;4974544;28;1100;-67
2021/11/23 04:20:08;;;;;;;;;;;21.10;61.60;;;;;;4979597;28;1104;-67
2021/11/23 04:22:34;;;;;;;;;;;21.10;61.60;;;;;;4991990;28;1898;-67
2021/11/23 04:24:59;;;;;;;;;;;21.10;61.50;;;;;;4975231;28;1286;-67
2021/11/23 04:27:27;;;;;;;;;;;21.10;61.60;;;;;;4977107;28;1111;-67
2021/11/23 04:29:52;;;;;;;;;;;21.10;61.50;;;;;;4975048;28;1368;-67
2021/11/23 04:32:18;;;;;;;;;;;21.10;61.50;;;;;;4974639;28;1104;-67
2021/11/23 04:34:43;;;;;;;;;;;21.20;61.60;;;;;;4974688;28;1167;-67
2021/11/23 04:37:09;;;;;;;;;;;21.20;61.60;;;;;;4998783;23;3683;-71
2021/11/23 04:39:34;;;;;;;;;;;21.20;61.60;;;;;;4983520;28;1283;-71
2021/11/23 04:41:59;;;;;;;;;;;21.10;61.50;;;;;;4999685;28;1911;-71
2021/11/23 04:44:25;;;;;;;;;;;21.20;61.60;;;;;;4975781;28;1945;-70
2021/11/23 04:46:50;;;;;;;;;;;21.20;61.50;;;;;;4974042;28;1388;-70
2021/11/23 04:49:16;;;;;;;;;;;21.10;61.40;;;;;;4974736;28;1325;-71
2021/11/23 04:51:41;;;;;;;;;;;21.10;61.50;;;;;;4988571;28;1135;-70
2021/11/23 04:54:07;;;;;;;;;;;21.10;61.50;;;;;;4974205;28;1293;-71
2021/11/23 04:56:32;;;;;;;;;;;21.10;61.50;;;;;;4974709;28;1354;-71
2021/11/23 04:58:58;;;;;;;;;;;21.10;61.60;;;;;;4974595;28;1367;-71
2021/11/23 05:01:23;;;;;;;;;;;21.10;61.50;;;;;;4974373;28;1287;-73
2021/11/23 05:03:49;;;;;;;;;;;21.10;61.60;;;;;;4974126;28;1899;-71
2021/11/23 05:06:15;;;;;;;;;;;21.10;61.60;;;;;;4988830;28;1367;-72
2021/11/23 05:08:40;;;;;;;;;;;21.10;61.70;;;;;;4972917;28;1301;-70
2021/11/23 05:11:08;;;;;;;;;;;21.10;61.70;;;;;;4974290;28;811;-70
2021/11/23 05:13:34;;;;;;;;;;;21.10;61.70;;;;;;4991102;28;1182;-71
2021/11/23 05:15:59;;;;;;;;;;;21.10;61.70;;;;;;4972625;28;1271;-70
2021/11/23 05:18:25;;;;;;;;;;;21.10;61.70;;;;;;4971731;28;915;-70
2021/11/23 05:20:50;;;;;;;;;;;21.10;61.70;;;;;;4981970;28;1394;-70
2021/11/23 05:23:16;;;;;;;;;;;21.10;61.60;;;;;;4988569;28;1957;-70
2021/11/23 05:25:41;;;;;;;;;;;21.10;61.60;;;;;;4974101;28;1301;-70
2021/11/23 05:28:07;;;;;;;;;;;21.10;61.60;;;;;;4977699;28;1084;-70
2021/11/23 05:30:32;;;;;;;;;;;21.10;61.70;;;;;;4973595;28;1263;-70
2021/11/23 05:32:58;;;;;;;;;;;21.10;61.60;;;;;;4970658;28;1242;-70
2021/11/23 05:35:23;;;;;;;;;;;21.10;61.60;;;;;;4973673;28;870;-70
2021/11/23 05:37:49;;;;;;;;;;;21.10;61.60;;;;;;4976939;28;1251;-70
2021/11/23 05:40:14;;;;;;;;;;;21.10;61.60;;;;;;4983824;28;1146;-70
2021/11/23 05:42:40;;;;;;;;;;;21.10;61.50;;;;;;4960090;28;1979;-70
2021/11/23 05:45:10;;;;;;;;;;;21.10;61.50;;;;;;4973847;28;812;-70
2021/11/23 05:47:36;;;;;;;;;;;21.10;61.60;;;;;;4987021;28;1248;-70
2021/11/23 05:50:03;;;;;;;;;;;21.10;61.60;;;;;;4963809;28;912;-70
2021/11/23 05:52:28;;;;;;;;;;;21.10;61.50;;;;;;4979622;28;1180;-70
2021/11/23 05:54:54;;;;;;;;;;;21.10;61.50;;;;;;4954675;29;1427;-70
2021/11/23 05:57:19;;;;;;;;;;;21.10;61.50;;;;;;4971101;28;1248;-70
2021/11/23 05:59:45;;;;;;;;;;;21.10;61.50;;;;;;4999020;28;1017;-70
2021/11/23 06:02:10;;;;;;;;;;;21.10;61.50;;;;;;4980150;28;1910;-70
2021/11/23 06:04:36;;;;;;;;;;;21.10;61.50;;;;;;4981626;28;1064;-70
2021/11/23 06:07:01;;;;;;;;;;;21.10;61.50;;;;;;4960682;28;1337;-70
2021/11/23 06:09:27;;;;;;;;;;;21.10;61.50;;;;;;4983938;28;1005;-70
2021/11/23 06:11:52;;;;;;;;;;;21.10;61.40;;;;;;4961771;28;1332;-71
2021/11/23 06:14:18;;;;;;;;;;;21.10;61.40;;;;;;4973858;28;1257;-71
2021/11/23 06:16:47;;;;;;;;;;;21.10;61.40;;;;;;4985044;28;1263;-71
2021/11/23 06:19:12;;;;;;;;;;;21.10;61.40;;;;;;4973688;28;1277;-71
2021/11/23 06:21:38;;;;;;;;;;;21.10;61.40;;;;;;4985985;28;1136;-71
2021/11/23 06:24:04;;;;;;;;;;;21.10;61.40;;;;;;4973727;28;1891;-71
2021/11/23 06:26:30;;;;;;;;;;;21.10;61.40;;;;;;4989510;28;1360;-71
2021/11/23 06:28:56;;;;;;;;;;;21.10;61.40;;;;;;4981159;28;804;-71
2021/11/23 06:31:21;;;;;;;;;;;21.10;61.40;;;;;;4992798;28;1375;-71
2021/11/23 06:33:47;;;;;;;;;;;21.10;61.40;;;;;;4986591;28;1329;-71
2021/11/23 06:36:12;;;;;;;;;;;21.10;61.40;;;;;;4962174;28;1248;-71
2021/11/23 06:38:38;;;;;;;;;;;21.10;61.40;;;;;;4982671;28;1156;-71
2021/11/23 06:41:03;;;;;;;;;;;21.10;61.40;;;;;;4987935;28;1199;-71
2021/11/23 06:43:28;;;;;;;;;;;21.10;61.50;;;;;;4983216;28;1902;-71
2021/11/23 06:45:55;;;;;;;;;;;21.10;61.40;;;;;;4972867;28;1392;-71
2021/11/23 06:48:21;;;;;;;;;;;21.10;61.50;;;;;;4980628;28;2082;-71
2021/11/23 06:50:46;;;;;;;;;;;21.10;61.40;;;;;;4976972;28;1949;-71
2021/11/23 06:53:12;;;;;;;;;;;21.10;61.50;;;;;;4986211;28;961;-70
2021/11/23 06:55:37;;;;;;;;;;;21.10;61.40;;;;;;4974816;28;1265;-70
2021/11/23 06:58:03;;;;;;;;;;;21.10;61.50;;;;;;4976584;28;1297;-70
2021/11/23 07:00:29;;;;;;;;;;;21.10;61.40;;;;;;4991237;28;1092;-72
2021/11/23 07:02:54;;;;;;;;;;;21.10;61.40;;;;;;4990503;28;1894;-72
2021/11/23 07:05:20;;;;;;;;;;;21.10;61.50;;;;;;4991068;28;1284;-72
2021/11/23 07:07:46;;;;;;;;;;;21.10;61.50;;;;;;4991090;28;1295;-71
2021/11/23 07:10:12;;;;;;;;;;;21.10;61.50;;;;;;4976036;28;1191;-71
2021/11/23 07:12:38;;;;;;;;;;;21.10;61.50;;;;;;4975224;28;1339;-72
2021/11/23 07:15:04;;;;;;;;;;;21.10;61.50;;;;;;4966905;28;1437;-71
2021/11/23 07:17:29;;;;;;;;;;;21.10;61.50;;;;;;4990515;28;1351;-71
2021/11/23 07:19:55;;;;;;;;;;;21.10;61.50;;;;;;4956804;28;1076;-71
2021/11/23 07:22:20;;;;;;;;;;;21.10;61.50;;;;;;4984376;28;1899;-73
2021/11/23 07:24:46;;;;;;;;;;;21.10;61.50;;;;;;4974858;28;1363;-71
2021/11/23 07:27:12;;;;;;;;;;;21.10;61.50;;;;;;4975279;28;1298;-71
2021/11/23 07:29:37;;;;;;;;;;;21.10;61.50;;;;;;4971611;28;1649;-70
2021/11/23 07:32:03;;;;;;;;;;;21.10;61.50;;;;;;4981530;28;1119;-74
2021/11/23 07:34:28;;;;;;;;;;;21.10;61.50;;;;;;4961539;28;1124;-72
2021/11/23 07:36:54;;;;;;;;;;;21.10;61.50;;;;;;4985272;28;1552;-68
2021/11/23 07:39:20;;;;;;;;;;;21.10;61.50;;;;;;4974483;28;1185;-69
2021/11/23 07:41:45;;;;;;;;;;;21.20;61.50;;;;;;4981870;28;1312;-72
2021/11/23 07:44:11;;;;;;;;;;;21.20;61.40;;;;;;4992047;28;1910;-72
2021/11/23 07:46:37;;;;;;;;;;;21.30;61.20;;;;;;4993580;28;1296;-69
2021/11/23 07:49:02;;;;;;;;;;;21.40;61.10;;;;;;4962710;28;1128;-68
2021/11/23 07:51:28;;;;;;;;;;;21.50;60.90;;;;;;4954442;29;1277;-68
2021/11/23 07:53:53;;;;;;;;;;;21.60;60.70;;;;;;4955440;29;1666;-68
2021/11/23 07:56:20;;;;;;;;;;;21.70;60.40;;;;;;4978108;28;1362;-70
2021/11/23 07:58:45;;;;;;;;;;;21.80;60.20;;;;;;4976157;28;1299;-71
2021/11/23 08:01:11;;;;;;;;;;;21.90;59.90;;;;;;4978065;28;1189;-72
2021/11/23 08:03:36;;;;;;;;;;;22.00;59.70;;;;;;4955562;28;1895;-72
2021/11/23 08:06:02;;;;;;;;;;;22.00;59.50;;;;;;4969653;28;1224;-73
2021/11/23 08:08:29;;;;;;;;;;;22.10;59.30;;;;;;4970490;28;1384;-72
2021/11/23 08:10:54;;;;;;;;;;;22.20;59.10;;;;;;4955525;28;1131;-71
2021/11/23 08:13:20;;;;;;;;;;;22.20;59.00;;;;;;4955630;29;1296;-72
2021/11/23 08:15:45;;;;;;;;;;;22.20;58.80;;;;;;4970492;28;1269;-72
2021/11/23 08:18:10;;;;;;;;;;;22.30;58.70;;;;;;4969958;28;1280;-72
2021/11/23 08:20:36;;;;;;;;;;;22.40;58.70;;;;;;4980942;28;1268;-72
2021/11/23 08:23:02;;;;;;;;;;;22.40;58.60;;;;;;4979843;28;1906;-73
2021/11/23 08:25:27;;;;;;;;;;;22.40;58.50;;;;;;4989510;28;1329;-72
2021/11/23 08:27:54;;;;;;;;;;;22.40;58.50;;;;;;4991103;28;1210;-72
2021/11/23 08:30:20;;;;;;;;;;;22.50;58.60;;;;;;4989723;28;1053;-72
2021/11/23 08:32:45;;;;;;;;;;;22.50;58.50;;;;;;4973910;28;1540;-71
2021/11/23 08:35:11;;;;;;;;;;;22.50;58.50;;;;;;4987028;28;1135;-70
2021/11/23 08:37:36;;;;;;;;;;;22.50;58.50;;;;;;4987360;28;1323;-70
2021/11/23 08:40:03;;;;;;;;;;;22.50;58.50;;;;;;4992970;28;1096;-71
2021/11/23 08:42:28;;;;;;;;;;;22.50;58.50;;;;;;4993485;28;1910;-72
2021/11/23 08:44:54;;;;;;;;;;;22.50;58.40;;;;;;4985707;28;1068;-72
2021/11/23 08:47:19;;;;;;;;;;;22.50;58.40;;;;;;4987053;28;1534;-71
2021/11/23 08:49:45;;;;;;;;;;;22.50;58.30;;;;;;4981394;28;1423;-71
2021/11/23 08:52:11;;;;;;;;;;;22.50;58.30;;;;;;4962683;28;1077;-72
2021/11/23 08:54:37;;;;;;;;;;;22.50;58.30;;;;;;4954980;29;1284;-72
2021/11/23 08:57:04;;;;;;;;;;;22.50;58.40;;;;;;4954940;28;1277;-72
2021/11/23 08:59:33;;;;;;;;;;;22.50;58.40;;;;;;4961657;28;1301;-71
2021/11/23 09:01:58;;;;;;;;;;;22.50;58.40;;;;;;4973033;28;1906;-72
2021/11/23 09:04:24;;;;;;;;;;;22.40;58.40;;;;;;4974566;28;1283;-72
2021/11/23 09:06:50;;;;;;;;;;;22.40;58.40;;;;;;4974094;28;1358;-73
2021/11/23 09:09:17;;;;;;;;;;;22.40;58.50;;;;;;4988322;28;1483;-72
2021/11/23 09:11:43;;;;;;;;;;;22.40;58.50;;;;;;4983060;28;1143;-72
2021/11/23 09:14:08;;;;;;;;;;;22.40;58.60;;;;;;4987707;28;1065;-73
2021/11/23 09:16:35;;;;;;;;;;;22.40;59.20;;;;;;4973849;28;1294;-72
2021/11/23 09:19:01;;;;;;;;;;;22.40;58.70;;;;;;4972651;28;1125;-72
2021/11/23 09:21:27;;;;;;;;;;;22.40;58.80;;;;;;4981449;28;1304;-72
2021/11/23 09:23:54;;;;;;;;;;;22.30;58.70;;;;;;4972931;28;1942;-73
2021/11/23 09:26:19;;;;;;;;;;;22.30;58.80;;;;;;4987694;28;1251;-72
2021/11/23 09:28:45;;;;;;;;;;;22.30;58.80;;;;;;4972774;28;1131;-73
2021/11/23 09:31:10;;;;;;;;;;;22.30;58.90;;;;;;4972744;28;1278;-72
2021/11/23 09:33:35;;;;;;;;;;;22.30;58.90;;;;;;4971518;28;1362;-73
2021/11/23 09:36:01;;;;;;;;;;;22.30;58.90;;;;;;4987767;28;1393;-72
2021/11/23 09:38:27;;;;;;;;;;;22.30;59.00;;;;;;4981016;28;1092;-73
2021/11/23 09:40:52;;;;;;;;;;;22.20;59.00;;;;;;4965739;28;1430;-72
2021/11/23 09:43:18;;;;;;;;;;;22.20;59.00;;;;;;4974755;28;1960;-73
2021/11/23 09:45:43;;;;;;;;;;;22.20;59.60;;;;;;4972693;28;1325;-72
2021/11/23 09:48:09;;;;;;;;;;;22.20;59.10;;;;;;4973275;28;1263;-72
2021/11/23 09:50:41;;;;;;;;;;;22.20;59.10;;;;;;4972607;28;926;-73
2021/11/23 09:53:07;;;;;;;;;;;22.20;59.20;;;;;;4972426;28;1143;-72
2021/11/23 09:55:32;;;;;;;;;;;22.20;59.20;;;;;;4972504;28;1290;-73
2021/11/23 09:57:58;;;;;;;;;;;22.20;59.20;;;;;;4987534;28;1367;-73
2021/11/23 10:00:25;;;;;;;;;;;22.20;59.20;;;;;;4972748;28;1275;-73
2021/11/23 10:02:51;;;;;;;;;;;22.20;59.20;;;;;;4996280;28;1890;-73
2021/11/23 10:05:16;;;;;;;;;;;22.20;59.20;;;;;;4961022;28;1325;-72
2021/11/23 10:07:43;;;;;;;;;;;22.20;59.10;;;;;;4976274;28;1288;-72
2021/11/23 10:10:12;;;;;;;;;;;22.30;59.10;;;;;;4987565;28;1210;-73
2021/11/23 10:12:38;;;;;;;;;;;22.30;59.00;;;;;;4986743;28;1132;-73
2021/11/23 10:15:14;;;;;;;;;;;22.30;58.90;;;;;;4987118;28;1335;-72
2021/11/23 10:17:40;;;;;;;;;;;22.40;58.90;;;;;;4972524;28;1367;-72
2021/11/23 10:20:06;;;;;;;;;;;22.40;59.50;;;;;;4991199;28;1123;-70
2021/11/23 10:22:35;;;;;;;;;;;22.40;58.80;;;;;;4991084;28;1902;-71
2021/11/23 10:25:03;;;;;;;;;;;22.40;58.70;;;;;;4962655;28;1143;-71
2021/11/23 10:27:28;;;;;;;;;;;22.40;58.60;;;;;;4974822;28;1221;-70
2021/11/23 10:29:54;;;;;;;;;;;22.50;58.70;;;;;;4988457;28;1343;-71
2021/11/23 10:32:19;;;;;;;;;;;22.50;58.60;;;;;;5001933;28;1124;-73
2021/11/23 10:34:45;;;;;;;;;;;22.50;58.50;;;;;;4983544;28;1120;-71
2021/11/23 10:37:27;;;;;;;;;;;22.50;58.50;;;;;;5012325;23;2078;-66
2021/11/23 10:39:52;;;;;;;;;;;22.50;58.50;;;;;;5011594;28;1316;-66
2021/11/23 10:42:18;;;;;;;;;;;22.50;58.50;;;;;;4996137;28;1914;-65
2021/11/23 10:44:51;;;;;;;;;;;22.50;58.60;;;;;;4995449;28;1298;-65
2021/11/23 10:47:16;;;;;;;;;;;22.50;58.60;;;;;;4995742;28;1311;-66
2021/11/23 10:49:46;;;;;;;;;;;22.50;58.60;;;;;;4975894;28;1566;-65
2021/11/23 10:52:24;;;;;;;;;;;22.50;59.20;;;;;;4976624;28;1805;-66
2021/11/23 10:54:49;;;;;;;;;;;22.40;58.60;;;;;;4977116;28;1253;-65
2021/11/23 10:57:15;;;;;;;;;;;22.40;58.60;;;;;;4975558;28;1376;-65
2021/11/23 10:59:40;;;;;;;;;;;22.40;58.70;;;;;;4977171;28;1326;-65
2021/11/23 11:02:06;;;;;;;;;;;22.40;58.70;;;;;;4976548;28;1958;-65
2021/11/23 11:04:35;;;;;;;;;;;22.40;58.80;;;;;;4976828;28;1272;-65
2021/11/23 11:07:01;;;;;;;;;;;22.40;58.80;;;;;;4975409;28;1354;-65
2021/11/23 11:09:26;;;;;;;;;;;22.40;58.80;;;;;;4975671;28;1360;-66
2021/11/23 11:11:53;;;;;;;;;;;22.40;58.90;;;;;;4976510;28;1328;-67
2021/11/23 11:14:18;;;;;;;;;;;22.40;58.90;;;;;;4977016;28;1056;-67
2021/11/23 11:16:44;;;;;;;;;;;22.40;58.90;;;;;;4973338;28;1530;-66
2021/11/23 11:19:10;;;;;;;;;;;22.30;58.90;;;;;;4994781;28;1385;-67
2021/11/23 11:21:41;;;;;;;;;;;22.30;59.00;;;;;;5004340;28;1092;-66
2021/11/23 11:24:27;;;;;;;;;;;22.30;59.00;;;;;;5004067;28;1957;-66
2021/11/23 11:27:10;;;;;;;;;;;22.30;59.10;;;;;;4995020;28;1260;-67
2021/11/23 11:29:35;;;;;;;;;;;22.30;59.20;;;;;;4999350;28;1096;-66
2021/11/23 11:32:01;;;;;;;;;;;22.30;59.20;;;;;;5010645;28;1355;-67
2021/11/23 11:34:26;;;;;;;;;;;22.30;59.20;;;;;;4997432;28;1141;-67
2021/11/23 11:37:01;;;;;;;;;;;22.30;59.20;;;;;;4984260;28;1234;-66
2021/11/23 11:39:35;;;;;;;;;;;22.30;59.20;;;;;;4995153;28;1337;-67
2021/11/23 11:42:01;;;;;;;;;;;22.30;59.20;;;;;;4984349;28;1931;-67
2021/11/23 11:44:35;;;;;;;;;;;22.30;59.10;;;;;;4992209;28;958;-67
2021/11/23 11:47:01;;;;;;;;;;;22.30;59.10;;;;;;5010272;28;1386;-67
2021/11/23 11:49:45;;;;;;;;;;;22.40;59.10;;;;;;4995602;28;1278;-67
2021/11/23 11:52:11;;;;;;;;;;;22.40;59.00;;;;;;4981943;28;1088;-67
2021/11/23 11:54:36;;;;;;;;;;;22.40;58.90;;;;;;4995854;28;1082;-67
2021/11/23 11:57:02;;;;;;;;;;;22.40;58.90;;;;;;4982092;28;1256;-67
2021/11/23 11:59:30;;;;;;;;;;;22.50;58.90;;;;;;4995595;28;1276;-66
2021/11/23 12:01:59;;;;;;;;;;;22.50;58.80;;;;;;4985825;28;2202;-66
2021/11/23 12:04:27;;;;;;;;;;;22.50;58.70;;;;;;4995290;28;1210;-66
2021/11/23 12:06:56;;;;;;;;;;;22.50;58.60;;;;;;4992745;28;1272;-66
2021/11/23 12:09:26;;;;;;;;;;;22.50;58.60;;;;;;4975584;28;1292;-66
2021/11/23 12:11:52;;;;;;;;;;;22.50;58.60;;;;;;4975260;28;1312;-66
2021/11/23 12:14:17;;;;;;;;;;;22.50;58.60;;;;;;4974514;28;1356;-66
2021/11/23 12:16:46;;;;;;;;;;;22.50;58.60;;;;;;4974307;28;1340;-65
2021/11/23 12:19:36;;;;;;;;;;;22.60;58.60;;;;;;4974454;28;1346;-66
2021/11/23 12:22:03;;;;;;;;;;;22.50;58.60;;;;;;4999402;28;1896;-66
2021/11/23 12:24:29;;;;;;;;;;;22.50;58.60;;;;;;5003855;28;1910;-66
2021/11/23 12:26:55;;;;;;;;;;;22.50;58.60;;;;;;4993775;28;1331;-66
2021/11/23 12:29:27;;;;;;;;;;;22.50;58.70;;;;;;4993397;28;1254;-66
2021/11/23 12:31:53;;;;;;;;;;;22.50;58.70;;;;;;4994319;28;1210;-66
2021/11/23 12:34:18;;;;;;;;;;;22.50;58.70;;;;;;5009437;28;1230;-66
2021/11/23 12:36:48;;;;;;;;;;;22.50;58.80;;;;;;5009597;28;1289;-66
2021/11/23 12:39:17;;;;;;;;;;;22.50;58.80;;;;;;4997888;28;1100;-66
2021/11/23 12:41:43;;;;;;;;;;;22.50;58.90;;;;;;4994879;28;1214;-66
2021/11/23 12:44:16;;;;;;;;;;;22.40;58.90;;;;;;4992447;28;1910;-66
2021/11/23 12:46:45;;;;;;;;;;;22.40;58.90;;;;;;4973587;28;1405;-66
2021/11/23 12:49:11;;;;;;;;;;;22.40;58.90;;;;;;4973815;28;1351;-66
2021/11/23 12:51:41;;;;;;;;;;;22.40;59.00;;;;;;4973754;28;1940;-66
2021/11/23 12:54:07;;;;;;;;;;;22.40;59.00;;;;;;4989877;28;1741;-66
2021/11/23 12:57:03;;;;;;;;;;;22.40;59.00;;;;;;4994140;28;1568;-66
2021/11/23 12:59:53;;;;;;;;;;;22.30;59.00;;;;;;4990016;28;1542;-66
2021/11/23 13:02:35;;;;;;;;;;;22.30;59.10;;;;;;5009076;28;1963;-66
2021/11/23 13:05:03;;;;;;;;;;;22.30;59.20;;;;;;4994484;28;1331;-66
2021/11/23 13:07:29;;;;;;;;;;;22.30;59.20;;;;;;4994023;28;1261;-66
2021/11/23 13:09:59;;;;;;;;;;;22.30;59.40;;;;;;4993415;28;1659;-66
2021/11/23 13:12:25;;;;;;;;;;;22.20;59.30;;;;;;4979707;28;1650;-66
2021/11/23 13:14:52;;;;;;;;;;;22.20;59.40;;;;;;4980199;28;1169;-66
2021/11/23 13:17:17;;;;;;;;;;;22.20;59.40;;;;;;4974597;28;1320;-66
2021/11/23 13:19:52;;;;;;;;;;;22.20;59.50;;;;;;4974693;28;1573;-66
2021/11/23 13:22:17;;;;;;;;;;;22.20;59.50;;;;;;4971931;28;1890;-66
2021/11/23 13:24:46;;;;;;;;;;;22.20;59.50;;;;;;4972511;28;1761;-66
2021/11/23 13:27:11;;;;;;;;;;;22.20;59.50;;;;;;4985653;28;1344;-66
2021/11/23 13:29:40;;;;;;;;;;;22.20;59.60;;;;;;4993840;28;1442;-66
2021/11/23 13:32:05;;;;;;;;;;;22.10;59.50;;;;;;4992409;28;1964;-66
2021/11/23 13:34:32;;;;;;;;;;;22.10;59.50;;;;;;4990775;28;2376;-66
2021/11/23 13:36:57;;;;;;;;;;;22.10;59.50;;;;;;4989509;28;2084;-66
2021/11/23 13:39:25;;;;;;;;;;;22.10;59.50;;;;;;4993297;28;1180;-66
2021/11/23 13:41:51;;;;;;;;;;;22.10;59.50;;;;;;4992779;28;1135;-66
2021/11/23 13:44:20;;;;;;;;;;;22.10;59.60;;;;;;4993271;28;1974;-66
2021/11/23 13:46:50;;;;;;;;;;;22.10;59.60;;;;;;4989491;28;2332;-66
2021/11/23 13:49:28;;;;;;;;;;;22.10;59.60;;;;;;4993384;28;1375;-66
2021/11/23 13:52:06;;;;;;;;;;;22.10;59.60;;;;;;4992482;28;1619;-66
2021/11/23 13:54:38;;;;;;;;;;;22.10;59.60;;;;;;4989996;28;1385;-66
2021/11/23 13:57:04;;;;;;;;;;;22.10;59.60;;;;;;4993382;28;1467;-66
2021/11/23 13:59:29;;;;;;;;;;;22.10;59.60;;;;;;5008744;28;1379;-66
2021/11/23 14:01:54;;;;;;;;;;;22.10;59.70;;;;;;4995086;28;1295;-66
2021/11/23 14:04:24;;;;;;;;;;;22.10;59.70;;;;;;4996608;28;1959;-66
2021/11/23 14:07:09;;;;;;;;;;;22.10;59.70;;;;;;5012071;28;1656;-66
2021/11/23 14:09:44;;;;;;;;;;;22.10;59.70;;;;;;4992705;28;1899;-66
2021/11/23 14:12:10;;;;;;;;;;;22.10;59.70;;;;;;4993511;28;1904;-66
2021/11/23 14:14:54;;;;;;;;;;;22.00;59.70;;;;;;4993356;28;1920;-66
2021/11/23 14:17:20;;;;;;;;;;;22.00;59.70;;;;;;4988077;28;1750;-66
2021/11/23 14:20:00;;;;;;;;;;;22.00;59.70;;;;;;4997431;28;1291;-66
2021/11/23 14:22:37;;;;;;;;;;;22.00;59.80;;;;;;4991008;28;1956;-66
2021/11/23 14:25:14;;;;;;;;;;;22.00;59.80;;;;;;4994879;28;1125;-66
2021/11/23 14:27:47;;;;;;;;;;;22.00;59.80;;;;;;4995657;28;1314;-66
2021/11/23 14:30:12;;;;;;;;;;;22.00;59.80;;;;;;4984102;28;1395;-66